Latest Weather Observations for Cape Flattery

IDQ60801

Issued at 10:32 am EST Thursday 11 February 2016 (issued every 30 minutes, with the page automatically refreshed every 10 minutes)

About weather observations | Map of weather stations | Latest weather observations for QLD | Other Formats
Station Details ID: 031213 Name: CAPE FLATTERY Lat: -14.97 Lon: 145.31 Height: 18.5 m
Data from the previous 72 hours. | See also: Recent months at Cape Flattery
Date/Time
EST
Temp
°C
App
Temp
°C
Dew
Point
Rel
Hum
%
Delta-T
°C
Wind Press
QNH
hPa
Press
MSL
hPa
Rain
since 9 am
mm
Dir
 
Spd
km/h
Gust
km/h
Spd
kts
Gust
kts
11/10:30am 31.3 32.0 22.9 61 5.8 SE 24 30 13 16 1008.4 1008.3 0.2
11/10:00am 31.9 33.7 24.2 63 5.4 SE 22 28 12 15 1008.6 1008.5 0.2
11/09:30am 29.7 31.4 23.4 69 4.3 SE 20 28 11 15 1008.8 1008.7 0.0
11/09:00am 30.3 32.3 24.0 69 4.4 SE 20 30 11 16 1008.7 1008.6 0.4
11/08:30am 29.4 31.0 23.8 72 3.9 SE 22 28 12 15 1008.8 1008.7 0.4
11/08:00am 29.6 31.4 24.2 73 3.8 SE 22 32 12 17 1008.3 1008.2 0.4
11/07:30am 28.9 31.4 24.7 78 2.9 SE 20 28 11 15 1007.9 1007.8 0.4
11/07:00am 26.9 32.0 25.5 92 1.0 SE 9 15 5 8 1007.6 1007.5 0.4
11/06:30am 25.5 29.6 24.5 94 0.7 SE 11 15 6 8 1007.3 1007.2 0.4
11/06:00am 25.4 29.5 24.0 92 1.0 ESE 9 13 5 7 1007.3 1007.2 0.4
11/05:30am 26.1 29.3 24.3 90 1.2 SE 15 20 8 11 1006.9 1006.8 0.4
11/05:00am 25.6 28.5 23.8 90 1.2 SE 15 19 8 10 1006.9 1006.8 0.4
11/04:30am 25.6 27.5 23.8 90 1.2 SE 20 26 11 14 1006.9 1006.8 0.4
11/04:00am 25.1 26.7 23.2 89 1.3 SE 20 33 11 18 1007.0 1006.9 0.4
11/03:30am 27.1 30.7 24.4 85 1.9 SE 13 17 7 9 1006.7 1006.6 0.2
11/03:00am 26.7 29.2 23.8 84 2.0 ESE 17 22 9 12 1006.5 1006.4 0.2
11/02:30am 26.4 27.8 22.9 81 2.4 ESE 20 30 11 16 1006.6 1006.5 0.2
11/02:00am 26.6 27.1 23.9 85 1.9 SE 28 37 15 20 1006.7 1006.6 0.2
11/01:30am 27.7 28.4 24.3 82 2.4 SSE 28 35 15 19 1006.8 1006.7 0.2
11/01:00am 27.7 30.3 24.9 85 2.0 SSE 20 28 11 15 1006.9 1006.8 0.2
11/12:30am 27.9 30.1 24.9 84 2.1 SSE 22 32 12 17 1007.4 1007.3 0.2
11/12:00am 28.3 29.6 24.1 78 2.9 SE 24 37 13 20 1007.8 1007.7 0.2
 
Date/Time
EST
Temp
°C
App
Temp
°C
Dew
Point
Rel
Hum
%
Delta-T
°C
Wind Press
QNH
hPa
Press
MSL
hPa
Rain
since 9 am
mm
Dir
 
Spd
km/h
Gust
km/h
Spd
kts
Gust
kts
10/11:30pm 28.1 30.2 24.7 82 2.4 SE 22 30 12 16 1008.1 1008.0 0.2
10/11:00pm 28.0 29.8 24.2 80 2.6 SSE 22 30 12 16 1008.5 1008.4 0.2
10/10:30pm 28.2 29.6 24.2 79 2.8 SSE 24 32 13 17 1008.6 1008.5 0.2
10/10:00pm 28.0 29.5 24.4 81 2.5 SSE 24 35 13 19 1008.2 1008.1 0.2
10/09:30pm 28.2 28.8 24.2 79 2.8 SSE 28 33 15 18 1007.7 1007.6 0.2
10/09:00pm 28.1 29.6 24.3 80 2.6 SE 24 32 13 17 1007.5 1007.4 0.2
10/08:30pm 28.1 29.6 24.3 80 2.6 SSE 24 32 13 17 1007.5 1007.4 0.2
10/08:00pm 28.0 29.0 24.2 80 2.6 SSE 26 35 14 19 1007.6 1007.5 0.2
10/07:30pm 28.3 29.1 24.5 80 2.6 SSE 28 37 15 20 1007.4 1007.3 0.2
10/07:00pm 28.4 29.5 24.4 79 2.8 SSE 26 35 14 19 1007.1 1007.0 0.2
10/06:30pm 28.5 29.2 24.3 78 2.9 SE 28 35 15 19 1006.8 1006.7 0.2
10/06:00pm 28.6 28.7 23.9 75 3.3 SSE 30 35 16 19 1006.3 1006.2 0.2
10/05:30pm 29.3 29.4 24.0 73 3.7 SE 30 41 16 22 1005.8 1005.7 0.2
10/05:00pm 30.0 30.5 23.9 70 4.2 SE 28 39 15 21 1005.7 1005.6 0.2
10/04:30pm 30.9 31.5 24.1 67 4.7 SE 28 37 15 20 1005.8 1005.7 0.2
10/04:00pm 30.9 30.9 23.0 62 5.4 SE 28 35 15 19 1005.8 1005.7 0.2
10/03:30pm 31.1 31.2 24.0 66 4.9 SSE 30 37 16 20 1005.8 1005.7 0.2
10/03:00pm 31.1 31.6 24.0 66 5.0 SSE 28 35 15 19 1005.8 1005.7 0.2
10/02:30pm 31.0 31.9 24.6 68 4.5 SSE 28 35 15 19 1006.2 1006.1 0.2
10/02:00pm 29.7 30.2 23.9 71 4.0 SSE 28 35 15 19 1006.4 1006.3 0.2
10/01:30pm 30.2 31.1 23.9 69 4.4 SSE 26 33 14 18 1006.7 1006.6 0.2
10/01:00pm 30.5 31.1 24.2 69 4.4 SSE 28 39 15 21 1007.0 1006.9 0.2
10/12:30pm 30.6 31.0 23.8 67 4.7 SSE 28 35 15 19 1007.5 1007.4 0.2
10/12:00pm 30.8 31.8 24.7 70 4.3 SSE 28 35 15 19 1007.9 1007.8 0.2
10/11:30am 31.3 33.3 26.3 75 3.6 SSE 28 39 15 21 1008.0 1007.9 0.2
10/11:00am 30.5 32.0 26.2 78 3.1 SSE 30 39 16 21 1008.1 1008.0 0.2
10/10:30am 29.9 32.4 26.5 82 2.4 SSE 26 35 14 19 1008.1 1008.0 0.0
10/10:00am 28.7 30.9 26.1 86 1.8 SSE 26 33 14 18 1008.3 1008.2 0.0
10/09:30am 27.9 29.6 25.9 89 1.4 SSE 28 37 15 20 1008.0 1007.9 0.0
10/09:00am 27.3 30.5 26.4 95 0.6 SSE 22 30 12 16 1008.1 1008.0 52.2
10/08:30am 25.5 31.3 25.2 98 0.2 S 4 6 2 3 1008.1 1008.0 52.2
10/08:00am 25.2 30.5 24.9 98 0.2 WSW 6 7 3 4 1008.0 1007.9 52.2
10/07:30am 24.9 30.7 24.6 98 0.2 SW 2 7 1 4 1007.9 1007.8 52.2
10/07:00am 24.9 30.0 24.6 98 0.2 SSE 6 7 3 4 1007.7 1007.6 51.6
10/06:30am 24.6 29.3 24.3 98 0.2 NNE 7 9 4 5 1007.6 1007.5 50.8
10/06:00am 23.7 25.4 23.0 96 0.5 E 19 32 10 17 1007.7 1007.6 45.6
10/05:30am 25.1 30.1 24.8 98 0.2 NNW 7 11 4 6 1007.2 1007.1 32.4
10/05:00am 25.2 29.5 24.9 98 0.2 WNW 11 13 6 7 1006.8 1006.7 30.6
10/04:30am 25.3 28.8 24.8 97 0.3 NW 15 19 8 10 1006.5 1006.4 25.8
10/04:00am 25.3 30.3 24.8 97 0.3 WNW 7 11 4 6 1006.5 1006.4 24.4
10/03:30am 25.3 30.3 24.8 97 0.3 NW 7 9 4 5 1006.5 1006.4 23.2
10/03:00am 25.2 30.3 24.7 97 0.3 NNE 6 9 3 5 1006.9 1006.8 22.4
10/02:30am 25.2 30.7 24.7 97 0.3 W 4 11 2 6 1006.7 1006.6 22.0
10/02:00am 25.3 29.5 24.8 97 0.3 WSW 11 17 6 9 1006.8 1006.7 16.8
10/01:30am 25.7 30.6 25.2 97 0.3 WSW 9 15 5 8 1007.1 1007.0 15.4
10/01:00am 26.0 29.0 25.3 96 0.5 SSW 19 24 10 13 1007.2 1007.1 13.2
10/12:30am 26.6 28.5 25.6 94 0.7 S 26 35 14 19 1007.4 1007.3 12.2
10/12:00am 27.5 31.4 26.6 95 0.6 SSE 19 28 10 15 1007.9 1007.8 12.2
 
Date/Time
EST
Temp
°C
App
Temp
°C
Dew
Point
Rel
Hum
%
Delta-T
°C
Wind Press
QNH
hPa
Press
MSL
hPa
Rain
since 9 am
mm
Dir
 
Spd
km/h
Gust
km/h
Spd
kts
Gust
kts
09/11:30pm 26.0 28.8 25.3 96 0.5 SSE 20 30 11 16 1008.3 1008.2 12.2
09/11:00pm 25.8 25.5 24.8 94 0.7 SSE 35 46 19 25 1008.8 1008.7 10.6
09/10:51pm 26.7 28.7 25.7 94 0.7 SSE 26 43 14 23 1008.7 1008.6 10.4
09/10:30pm 27.2 31.8 26.5 96 0.5 S 15 20 8 11 1008.7 1008.6 10.4
09/10:00pm 25.7 28.4 25.0 96 0.5 SSE 20 35 11 19 1008.8 1008.7 8.4
09/09:38pm 27.9 28.7 24.5 82 2.4 SSE 28 44 15 24 1008.7 1008.6 0.2
09/09:30pm 28.9 32.0 25.7 83 2.3 SSE 20 26 11 14 1008.6 1008.5 0.2
09/09:00pm 28.9 31.1 25.5 82 2.4 SSE 24 32 13 17 1008.4 1008.3 0.2
09/08:30pm 29.1 31.7 25.5 81 2.5 SE 22 32 12 17 1008.1 1008.0 0.2
09/08:00pm 29.1 32.1 26.1 84 2.1 SSE 22 30 12 16 1008.1 1008.0 0.2
09/07:30pm 29.1 31.6 25.9 83 2.3 SSE 24 32 13 17 1007.9 1007.8 0.2
09/07:00pm 29.0 30.9 25.6 82 2.4 SSE 26 32 14 17 1007.2 1007.1 0.2
09/06:30pm 28.9 30.9 25.1 80 2.7 SSE 24 32 13 17 1006.6 1006.5 0.2
09/06:00pm 29.1 30.6 24.9 78 2.9 SSE 26 33 14 18 1006.8 1006.7 0.2
09/05:30pm 30.0 30.3 24.9 74 3.6 SSE 32 41 17 22 1006.1 1006.0 0.2
09/05:00pm 30.3 29.6 24.2 70 4.3 SE 35 46 19 25 1006.2 1006.1 0.2
09/04:30pm 30.9 31.3 25.3 72 4.0 SE 33 46 18 25 1006.0 1005.9 0.2
09/04:00pm 30.9 31.0 24.5 68 4.5 SSE 32 43 17 23 1005.8 1005.7 0.2
09/03:30pm 31.5 33.3 25.4 70 4.3 SSE 26 33 14 18 1005.9 1005.8 0.2
09/03:00pm 31.5 33.1 25.1 69 4.5 SE 26 32 14 17 1005.9 1005.8 0.2
09/02:30pm 31.5 33.0 24.9 68 4.6 SSE 26 35 14 19 1006.3 1006.2 0.2
09/02:00pm 31.6 33.8 25.5 70 4.3 SE 24 32 13 17 1006.6 1006.5 0.2
09/01:30pm 31.7 33.0 25.3 69 4.5 SSE 28 37 15 20 1007.4 1007.3 0.2
09/01:00pm 31.6 32.4 25.0 68 4.7 SSE 30 39 16 21 1007.9 1007.8 0.2
09/12:30pm 32.4 33.9 26.2 70 4.4 SSE 30 39 16 21 1008.1 1008.0 0.2
09/12:00pm 31.3 32.2 25.2 70 4.3 SSE 30 37 16 20 1008.4 1008.3 0.2
09/11:30am 31.4 32.4 24.8 68 4.6 S 28 39 15 21 1008.8 1008.7 0.2
09/11:00am 30.6 31.7 25.0 72 3.9 SSE 28 35 15 19 1009.0 1008.9 0.2
09/10:30am 30.0 30.9 24.6 73 3.8 SSE 28 33 15 18 1009.3 1009.2 0.2
09/10:00am 30.3 31.8 25.6 76 3.3 SSE 28 35 15 19 1009.5 1009.4 0.2
09/09:30am 29.6 31.6 25.8 80 2.7 SSE 26 35 14 19 1009.6 1009.5 0.2
09/09:00am 29.9 31.9 26.3 81 2.6 SSE 28 37 15 20 1009.3 1009.2 3.4
09/08:30am 28.7 31.0 25.7 84 2.1 SSE 24 33 13 18 1009.2 1009.1 3.4
09/08:00am 28.6 31.3 26.2 87 1.7 S 24 30 13 16 1008.9 1008.8 3.4
09/07:30am 28.7 31.7 26.1 86 1.8 SSE 22 32 12 17 1008.5 1008.4 3.4
09/07:00am 27.9 31.6 26.3 91 1.1 SSE 19 24 10 13 1008.2 1008.1 3.4
09/06:30am 27.6 30.6 26.7 95 0.6 SSE 24 39 13 21 1007.7 1007.6 3.4
09/06:00am 27.0 32.6 26.3 96 0.5 S 9 19 5 10 1007.5 1007.4 3.2
09/05:30am 26.5 31.2 25.6 95 0.6 ESE 11 15 6 8 1007.3 1007.2 2.0
09/05:00am 27.6 33.7 27.1 97 0.4 S 9 11 5 6 1006.9 1006.8 0.8
09/04:30am 26.5 32.0 25.6 95 0.6 ESE 7 9 4 5 1006.8 1006.7 0.8
09/04:00am 26.5 30.8 24.9 91 1.1 ESE 11 13 6 7 1006.8 1006.7 0.0
09/03:30am 26.8 29.5 25.0 90 1.3 SE 20 28 11 15 1007.0 1006.9 0.0
09/03:00am 27.5 32.1 26.6 95 0.6 SSE 15 19 8 10 1006.7 1006.6 0.0
09/02:30am 27.4 32.2 26.3 94 0.8 S 13 19 7 10 1006.8 1006.7 0.0
09/02:00am 27.4 32.2 26.3 94 0.8 SSE 13 17 7 9 1007.0 1006.9 0.0
09/01:30am 26.5 31.4 25.3 93 0.8 SE 9 11 5 6 1007.4 1007.3 0.0
09/01:00am 26.8 31.8 24.5 87 1.6 SE 6 7 3 4 1008.0 1007.9 0.0
09/12:30am 27.1 30.2 24.2 84 2.0 E 15 19 8 10 1008.6 1008.5 0.0
09/12:00am 28.6 30.4 25.4 83 2.3 SE 26 33 14 18 1008.9 1008.8 0.0
 
Date/Time
EST
Temp
°C
App
Temp
°C
Dew
Point
Rel
Hum
%
Delta-T
°C
Wind Press
QNH
hPa
Press
MSL
hPa
Rain
since 9 am
mm
Dir
 
Spd
km/h
Gust
km/h
Spd
kts
Gust
kts
08/11:30pm 28.1 32.8 26.1 89 1.4 S 13 22 7 12 1009.1 1009.0 0.0
08/11:00pm 28.3 33.1 26.3 89 1.4 SSW 13 17 7 9 1009.4 1009.3 0.0
08/10:30pm 27.5 32.8 25.3 88 1.5 SW 7 9 4 5 1009.3 1009.2 0.0
08/10:00pm 27.2 32.4 24.8 87 1.7 SSW 6 11 3 6 1009.1 1009.0 0.0
08/09:30pm 27.5 33.6 25.1 87 1.7 W 2 7 1 4 1008.7 1008.6 0.0
08/09:00pm 28.1 33.5 25.5 86 1.8 S 7 9 4 5 1008.3 1008.2 0.0
08/08:30pm 28.0 32.6 25.4 86 1.8 SE 11 13 6 7 1008.0 1007.9 0.0
08/08:00pm 27.2 32.1 24.7 86 1.7 E 7 9 4 5 1008.2 1008.1 0.0
08/07:30pm 27.5 32.4 24.6 84 2.0 SW 7 11 4 6 1008.2 1008.1 0.0
08/07:00pm 28.2 32.2 24.4 80 2.6 WSW 11 15 6 8 1008.0 1007.9 0.0
08/06:30pm 28.8 32.5 24.6 78 2.9 S 13 17 7 9 1007.0 1006.9 0.0
08/06:00pm 29.6 32.7 24.2 73 3.8 S 15 20 8 11 1006.4 1006.3 0.0
08/05:30pm 31.2 33.5 24.1 66 4.9 SW 19 26 10 14 1006.4 1006.3 0.0
08/05:00pm 31.7 35.9 24.8 67 4.9 SW 11 15 6 8 1006.1 1006.0 0.0
08/04:30pm 30.8 35.4 25.4 73 3.8 S 11 13 6 7 1006.3 1006.2 0.0
08/04:00pm 31.7 36.9 25.1 68 4.7 S 7 13 4 7 1006.4 1006.3 0.0
08/03:30pm 31.9 36.3 24.5 65 5.2 NNW 9 13 5 7 1006.5 1006.4 0.0
08/03:00pm 33.2 38.3 26.2 66 5.0 NNW 11 17 6 9 1006.4 1006.3 0.0
08/02:30pm 32.2 35.5 24.5 64 5.4 N 15 20 8 11 1006.5 1006.4 0.0
08/02:00pm 33.3 36.1 25.0 61 5.9 NE 19 24 10 13 1006.3 1006.2 0.0
08/01:30pm 32.8 35.5 24.8 62 5.6 NNE 19 26 10 14 1007.0 1006.9 0.0
08/01:00pm 33.5 36.8 25.7 63 5.6 NNE 19 24 10 13 1007.2 1007.1 0.0
08/12:30pm 33.4 37.3 25.4 63 5.7 NNE 15 22 8 12 1007.9 1007.8 0.0
08/12:00pm 33.5 37.6 25.7 63 5.6 NE 15 19 8 10 1008.4 1008.3 0.0
08/11:30am 33.0 37.9 25.8 66 5.1 NNE 11 17 6 9 1009.0 1008.9 0.0
08/11:00am 31.8 35.9 25.2 68 4.7 NE 13 19 7 10 1009.1 1009.0 0.0

Other Formats:

Comma delimited format used in spreadsheet applications
http://www.bom.gov.au/fwo/IDQ60801/IDQ60801.94188.axf

JavaScript Object Notation format (JSON) in row-major order
http://www.bom.gov.au/fwo/IDQ60801/IDQ60801.94188.json